Time;durP1;ratioP1;P1;durP2;ratioP2;P2;SDS_P1;SDS_P2;PMS_P1;PMS_P2;Temp;Humidity;BMP_temperature;BMP_pressure;BME280_temperature;BME280_humidity;BME280_pressure;Samples;Min_cycle;Max_cycle;Signal;HPM_P1;HPM_P2
2022/01/29 00:00:27;;;;;;;;;;;9.70;94.30;;;;;;5077975;28;19915;-74
2022/01/29 00:02:53;;;;;;;;;;;9.70;94.30;;;;;;5079622;28;19961;-74
2022/01/29 00:05:19;;;;;;;;;;;9.70;94.40;;;;;;5079453;28;19909;-74
2022/01/29 00:07:44;;;;;;;;;;;9.70;94.50;;;;;;5079876;28;20380;-74
2022/01/29 00:10:11;;;;;;;;;;;9.70;94.70;;;;;;5079164;28;19919;-74
2022/01/29 00:12:36;;;;;;;;;;;9.70;94.90;;;;;;5079493;28;19908;-74
2022/01/29 00:15:02;;;;;;;;;;;9.70;94.90;;;;;;5066853;28;19984;-74
2022/01/29 00:17:28;;;;;;;;;;;9.70;94.90;;;;;;5078106;28;20394;-74
2022/01/29 00:19:54;;;;;;;;;;;9.70;94.80;;;;;;5079294;28;19915;-74
2022/01/29 00:22:19;;;;;;;;;;;9.70;94.60;;;;;;5077849;28;19970;-74
2022/01/29 00:24:45;;;;;;;;;;;9.70;94.50;;;;;;5078011;28;19916;-74
2022/01/29 00:27:11;;;;;;;;;;;9.70;94.50;;;;;;5079014;28;19912;-74
2022/01/29 00:29:39;;;;;;;;;;;9.70;94.40;;;;;;5079007;28;19913;-74
2022/01/29 00:32:05;;;;;;;;;;;9.70;94.40;;;;;;5078421;28;19909;-74
2022/01/29 00:34:31;;;;;;;;;;;9.70;94.40;;;;;;5078565;28;19912;-74
2022/01/29 00:36:57;;;;;;;;;;;9.70;94.40;;;;;;5071524;28;19909;-73
2022/01/29 00:39:22;;;;;;;;;;;9.70;94.40;;;;;;5078640;28;19947;-74
2022/01/29 00:41:48;;;;;;;;;;;9.70;94.30;;;;;;5078820;28;19956;-74
2022/01/29 00:44:14;;;;;;;;;;;9.70;94.50;;;;;;5078339;28;20362;-74
2022/01/29 00:46:41;;;;;;;;;;;9.70;94.50;;;;;;5078566;28;19938;-73
2022/01/29 00:49:10;;;;;;;;;;;9.70;94.60;;;;;;5077177;28;19916;-74
2022/01/29 00:51:36;;;;;;;;;;;9.70;94.50;;;;;;5077630;28;19966;-74
2022/01/29 00:54:02;;;;;;;;;;;9.70;94.40;;;;;;5078215;28;19909;-73
2022/01/29 00:56:28;;;;;;;;;;;9.70;94.40;;;;;;5078573;28;19908;-74
2022/01/29 00:58:53;;;;;;;;;;;9.70;94.50;;;;;;5078653;28;19915;-74
2022/01/29 01:01:19;;;;;;;;;;;9.70;94.50;;;;;;5078377;28;19958;-73
2022/01/29 01:03:44;;;;;;;;;;;9.70;94.80;;;;;;5076269;28;19958;-73
2022/01/29 01:06:10;;;;;;;;;;;9.70;94.70;;;;;;5078285;28;19908;-74
2022/01/29 01:08:36;;;;;;;;;;;9.70;94.60;;;;;;5076748;28;19919;-74
2022/01/29 01:11:03;;;;;;;;;;;9.70;94.90;;;;;;5078215;28;19915;-74
2022/01/29 01:13:30;;;;;;;;;;;9.70;95.20;;;;;;5076385;28;19944;-74
2022/01/29 01:15:55;;;;;;;;;;;9.80;95.20;;;;;;5064368;28;20050;-74
2022/01/29 01:18:21;;;;;;;;;;;9.70;95.40;;;;;;5078258;28;19959;-74
2022/01/29 01:20:47;;;;;;;;;;;9.70;95.60;;;;;;5077824;28;20287;-74
2022/01/29 01:23:12;;;;;;;;;;;9.70;95.70;;;;;;5078146;28;19909;-74
2022/01/29 01:25:38;;;;;;;;;;;9.70;95.80;;;;;;5077960;28;19909;-74
2022/01/29 01:28:04;;;;;;;;;;;9.70;95.80;;;;;;5078068;28;19965;-74
2022/01/29 01:30:29;;;;;;;;;;;9.80;95.80;;;;;;5076405;28;19959;-74
2022/01/29 01:32:55;;;;;;;;;;;9.80;95.80;;;;;;5076436;28;19913;-74
2022/01/29 01:35:27;;;;;;;;;;;9.70;95.90;;;;;;5077613;28;19912;-73
2022/01/29 01:37:59;;;;;;;;;;;9.80;96.10;;;;;;5070507;28;19909;-74
2022/01/29 01:40:26;;;;;;;;;;;9.80;96.20;;;;;;5078023;28;19915;-74
2022/01/29 01:42:58;;;;;;;;;;;9.70;96.20;;;;;;5075248;28;19928;-74
2022/01/29 01:45:24;;;;;;;;;;;9.70;96.20;;;;;;5067491;28;19909;-73
2022/01/29 01:47:49;;;;;;;;;;;9.70;96.30;;;;;;5057628;28;19909;-74
2022/01/29 01:50:15;;;;;;;;;;;9.70;96.20;;;;;;5071860;28;19912;-73
2022/01/29 01:52:41;;;;;;;;;;;9.80;96.30;;;;;;5077341;28;20267;-74
2022/01/29 01:55:06;;;;;;;;;;;9.80;96.40;;;;;;5077615;28;20379;-74
2022/01/29 01:57:32;;;;;;;;;;;9.70;96.30;;;;;;5077549;28;19962;-74
2022/01/29 01:59:58;;;;;;;;;;;9.70;96.30;;;;;;5077356;28;19912;-74
2022/01/29 02:02:23;;;;;;;;;;;9.70;96.20;;;;;;5060456;28;19916;-74
2022/01/29 02:04:49;;;;;;;;;;;9.70;96.30;;;;;;5060640;28;19908;-73
2022/01/29 02:07:16;;;;;;;;;;;9.70;96.50;;;;;;5059831;28;20003;-73
2022/01/29 02:09:41;;;;;;;;;;;9.70;96.60;;;;;;5057381;28;19912;-73
2022/01/29 02:12:09;;;;;;;;;;;9.70;96.60;;;;;;5057482;28;19909;-73
2022/01/29 02:14:35;;;;;;;;;;;9.70;96.70;;;;;;5062743;28;19909;-73
2022/01/29 02:17:03;;;;;;;;;;;9.70;96.60;;;;;;5072203;28;19955;-73
2022/01/29 02:19:28;;;;;;;;;;;9.70;96.50;;;;;;5077639;28;19905;-73
2022/01/29 02:21:55;;;;;;;;;;;9.70;96.50;;;;;;5077582;28;19909;-73
2022/01/29 02:24:21;;;;;;;;;;;9.70;96.50;;;;;;5074987;28;19916;-74
2022/01/29 02:26:47;;;;;;;;;;;9.70;96.70;;;;;;5077162;28;19924;-73
2022/01/29 02:29:14;;;;;;;;;;;9.70;96.60;;;;;;5077296;28;20295;-73
2022/01/29 02:31:56;;;;;;;;;;;9.70;96.40;;;;;;5076949;28;19908;-73
2022/01/29 02:34:23;;;;;;;;;;;9.70;96.40;;;;;;5076979;28;19909;-73
2022/01/29 02:36:50;;;;;;;;;;;9.70;96.60;;;;;;5076914;28;19908;-73
2022/01/29 02:39:19;;;;;;;;;;;9.70;96.80;;;;;;5077198;28;20354;-73
2022/01/29 02:41:45;;;;;;;;;;;9.70;96.80;;;;;;5075843;28;19908;-73
2022/01/29 02:44:15;;;;;;;;;;;9.70;96.90;;;;;;5075529;28;19921;-73
2022/01/29 02:46:52;;;;;;;;;;;9.70;96.90;;;;;;5063955;28;19965;-74
2022/01/29 02:49:22;;;;;;;;;;;9.70;97.00;;;;;;5077026;28;20325;-73
2022/01/29 02:51:52;;;;;;;;;;;9.70;97.00;;;;;;5075908;28;19937;-73
2022/01/29 02:54:18;;;;;;;;;;;9.70;97.10;;;;;;5076994;28;19915;-73
2022/01/29 02:56:44;;;;;;;;;;;9.70;97.20;;;;;;5077206;28;19919;-73
2022/01/29 02:59:10;;;;;;;;;;;9.70;97.20;;;;;;5077106;28;20354;-73
2022/01/29 03:01:36;;;;;;;;;;;9.70;97.40;;;;;;5076978;28;19951;-73
2022/01/29 03:04:02;;;;;;;;;;;9.70;97.40;;;;;;5074793;28;19909;-73
2022/01/29 03:06:29;;;;;;;;;;;9.70;97.40;;;;;;5077131;28;19962;-73
2022/01/29 03:08:54;;;;;;;;;;;9.70;97.50;;;;;;5076413;28;19916;-74
2022/01/29 03:11:20;;;;;;;;;;;9.70;97.50;;;;;;5076972;28;19952;-73
2022/01/29 03:13:46;;;;;;;;;;;9.70;97.50;;;;;;5074906;28;19915;-73
2022/01/29 03:16:12;;;;;;;;;;;9.70;97.50;;;;;;5068108;28;20355;-73
2022/01/29 03:18:37;;;;;;;;;;;9.70;97.60;;;;;;5080318;28;19932;-74
2022/01/29 03:21:03;;;;;;;;;;;9.70;97.50;;;;;;5080331;28;19909;-73
2022/01/29 03:23:29;;;;;;;;;;;9.70;97.50;;;;;;5080397;28;19912;-73
2022/01/29 03:25:54;;;;;;;;;;;9.70;97.60;;;;;;5080216;28;19974;-73
2022/01/29 03:28:20;;;;;;;;;;;9.80;97.60;;;;;;5080031;28;19951;-74
2022/01/29 03:30:46;;;;;;;;;;;9.70;97.60;;;;;;5078549;28;19955;-74
2022/01/29 03:33:11;;;;;;;;;;;9.70;97.60;;;;;;5078710;28;20354;-74
2022/01/29 03:35:37;;;;;;;;;;;9.70;97.70;;;;;;5079905;28;20275;-73
2022/01/29 03:38:03;;;;;;;;;;;9.70;97.60;;;;;;5080022;28;19916;-73
2022/01/29 03:40:30;;;;;;;;;;;9.70;97.70;;;;;;5078744;28;19968;-73
2022/01/29 03:43:09;;;;;;;;;;;9.70;97.80;;;;;;5076696;28;19928;-73
2022/01/29 03:45:35;;;;;;;;;;;9.70;97.80;;;;;;5079307;28;20362;-73
2022/01/29 03:48:01;;;;;;;;;;;9.70;97.80;;;;;;5079756;28;20107;-73
2022/01/29 03:50:26;;;;;;;;;;;9.70;97.80;;;;;;5080035;28;19913;-73
2022/01/29 03:52:52;;;;;;;;;;;9.70;97.80;;;;;;5079579;28;19908;-73
2022/01/29 03:55:18;;;;;;;;;;;9.70;97.80;;;;;;5079933;28;19912;-73
2022/01/29 03:57:43;;;;;;;;;;;9.70;97.90;;;;;;5079632;28;19909;-73
2022/01/29 04:00:09;;;;;;;;;;;9.70;97.80;;;;;;5079575;28;19916;-73
2022/01/29 04:02:35;;;;;;;;;;;9.70;97.70;;;;;;5079422;28;19908;-73
2022/01/29 04:05:00;;;;;;;;;;;9.70;97.70;;;;;;5079492;28;19908;-74
2022/01/29 04:07:26;;;;;;;;;;;9.70;97.70;;;;;;5079364;28;19916;-73
2022/01/29 04:09:53;;;;;;;;;;;9.70;97.60;;;;;;5079295;28;19912;-73
2022/01/29 04:12:18;;;;;;;;;;;9.70;97.60;;;;;;5078949;28;19908;-73
2022/01/29 04:14:44;;;;;;;;;;;9.70;97.60;;;;;;5068487;28;19911;-73
2022/01/29 04:17:11;;;;;;;;;;;9.70;97.60;;;;;;5075057;28;19908;-73
2022/01/29 04:19:37;;;;;;;;;;;9.70;97.60;;;;;;5079345;28;19971;-73
2022/01/29 04:22:03;;;;;;;;;;;9.70;97.40;;;;;;5079151;28;19915;-74
2022/01/29 04:24:29;;;;;;;;;;;9.70;97.50;;;;;;5075278;28;19908;-74
2022/01/29 04:26:55;;;;;;;;;;;9.70;97.50;;;;;;5077303;28;19935;-74
2022/01/29 04:29:20;;;;;;;;;;;9.70;97.50;;;;;;5078941;28;19919;-73
2022/01/29 04:32:10;;;;;;;;;;;9.70;97.50;;;;;;5078319;28;19909;-73
2022/01/29 04:34:35;;;;;;;;;;;9.70;97.50;;;;;;5078555;28;19962;-73
2022/01/29 04:37:01;;;;;;;;;;;9.70;97.40;;;;;;5071910;28;19913;-72
2022/01/29 04:39:27;;;;;;;;;;;9.70;97.40;;;;;;5078884;28;19912;-73
2022/01/29 04:41:52;;;;;;;;;;;9.70;97.40;;;;;;5078836;28;20003;-74
2022/01/29 04:44:18;;;;;;;;;;;9.70;97.40;;;;;;5078453;28;19948;-73
2022/01/29 04:46:44;;;;;;;;;;;9.70;97.40;;;;;;5078278;28;19955;-73
2022/01/29 04:49:09;;;;;;;;;;;9.70;97.50;;;;;;5078592;28;19916;-74
2022/01/29 04:51:35;;;;;;;;;;;9.70;97.50;;;;;;5078864;28;20367;-73
2022/01/29 04:54:01;;;;;;;;;;;9.70;97.50;;;;;;5078381;28;19913;-72
2022/01/29 04:56:27;;;;;;;;;;;9.70;97.50;;;;;;5078745;28;20283;-73
2022/01/29 04:58:52;;;;;;;;;;;9.70;97.50;;;;;;5078573;28;20412;-73
2022/01/29 05:01:18;;;;;;;;;;;9.70;97.60;;;;;;5078533;28;19909;-73
2022/01/29 05:03:43;;;;;;;;;;;9.70;97.50;;;;;;5074856;28;20367;-73
2022/01/29 05:06:10;;;;;;;;;;;9.70;97.60;;;;;;5078491;28;19958;-73
2022/01/29 05:08:39;;;;;;;;;;;9.60;97.50;;;;;;5078046;28;19962;-73
2022/01/29 05:11:05;;;;;;;;;;;9.70;97.50;;;;;;5078118;28;19908;-72
2022/01/29 05:13:32;;;;;;;;;;;9.70;97.60;;;;;;5076600;28;20648;-73
2022/01/29 05:26:59;;;;;;;;;;;9.60;97.70;;;;;;5069135;28;19951;-73
2022/01/29 05:29:30;;;;;;;;;;;9.60;97.80;;;;;;5077739;28;19912;-73
2022/01/29 05:31:56;;;;;;;;;;;9.60;97.90;;;;;;5077792;28;19937;-73
2022/01/29 05:34:22;;;;;;;;;;;9.60;97.90;;;;;;5077594;28;20580;-73
2022/01/29 05:36:49;;;;;;;;;;;9.60;98.00;;;;;;5077517;28;20305;-73
2022/01/29 05:39:15;;;;;;;;;;;9.60;98.00;;;;;;5077490;28;19974;-73
2022/01/29 05:41:41;;;;;;;;;;;9.60;98.30;;;;;;5078008;28;19966;-73
2022/01/29 05:44:07;;;;;;;;;;;9.60;98.00;;;;;;5075503;28;19920;-73
2022/01/29 05:46:32;;;;;;;;;;;9.60;98.10;;;;;;5077512;28;19908;-73
2022/01/29 05:48:58;;;;;;;;;;;9.60;98.20;;;;;;5076104;28;19920;-73
2022/01/29 05:51:24;;;;;;;;;;;9.60;98.20;;;;;;5077768;28;19909;-73
2022/01/29 05:53:49;;;;;;;;;;;9.60;98.30;;;;;;5077604;28;20382;-73
2022/01/29 05:56:15;;;;;;;;;;;9.60;98.20;;;;;;5077815;28;19908;-73
2022/01/29 05:58:41;;;;;;;;;;;9.60;98.30;;;;;;5076186;28;19912;-73
2022/01/29 06:01:06;;;;;;;;;;;9.60;98.30;;;;;;5077504;28;19912;-74
2022/01/29 06:03:32;;;;;;;;;;;9.60;98.40;;;;;;5077603;28;19908;-73
2022/01/29 06:05:58;;;;;;;;;;;9.60;98.40;;;;;;5077493;28;19973;-74
2022/01/29 06:08:23;;;;;;;;;;;9.60;98.30;;;;;;5077460;28;19931;-73
2022/01/29 06:10:49;;;;;;;;;;;9.50;98.30;;;;;;5077446;28;19932;-74
2022/01/29 06:13:16;;;;;;;;;;;9.60;98.30;;;;;;5077229;28;19908;-74
2022/01/29 06:15:43;;;;;;;;;;;9.60;98.30;;;;;;5071103;28;19961;-74
2022/01/29 06:18:15;;;;;;;;;;;9.50;98.30;;;;;;5077745;28;20283;-74
2022/01/29 06:20:41;;;;;;;;;;;9.50;98.30;;;;;;5076091;28;19916;-74
2022/01/29 06:23:07;;;;;;;;;;;9.50;98.30;;;;;;5075808;28;19941;-74
2022/01/29 06:25:33;;;;;;;;;;;9.50;98.30;;;;;;5076760;28;20418;-74
2022/01/29 06:27:58;;;;;;;;;;;9.60;98.40;;;;;;5077422;28;19908;-74
2022/01/29 06:30:24;;;;;;;;;;;9.60;98.50;;;;;;5076936;28;19913;-74
2022/01/29 06:32:50;;;;;;;;;;;9.50;98.30;;;;;;5075862;28;19909;-73
2022/01/29 06:35:15;;;;;;;;;;;9.50;98.20;;;;;;5075680;28;19909;-74
2022/01/29 06:37:41;;;;;;;;;;;9.50;98.20;;;;;;5077173;28;19915;-73
2022/01/29 06:40:07;;;;;;;;;;;9.50;98.30;;;;;;5075797;28;19915;-73
2022/01/29 06:42:33;;;;;;;;;;;9.50;98.20;;;;;;5075404;28;19924;-74
2022/01/29 06:44:59;;;;;;;;;;;9.60;98.30;;;;;;5076396;28;20361;-74
2022/01/29 06:47:24;;;;;;;;;;;9.50;98.30;;;;;;5076419;28;19916;-74
2022/01/29 06:49:50;;;;;;;;;;;9.50;98.20;;;;;;5079194;28;19922;-74
2022/01/29 06:52:16;;;;;;;;;;;9.50;98.20;;;;;;5080001;28;20975;-74
2022/01/29 06:54:41;;;;;;;;;;;9.60;98.30;;;;;;5080615;28;19912;-73
2022/01/29 06:57:07;;;;;;;;;;;9.50;98.40;;;;;;5080728;28;20291;-73
2022/01/29 06:59:33;;;;;;;;;;;9.50;98.50;;;;;;5079809;28;20005;-73
2022/01/29 07:01:58;;;;;;;;;;;9.50;98.40;;;;;;5078517;28;20001;-73
2022/01/29 07:04:24;;;;;;;;;;;9.50;98.50;;;;;;5078535;28;19916;-74
2022/01/29 07:06:49;;;;;;;;;;;9.50;98.50;;;;;;5078204;28;19909;-74
2022/01/29 07:09:15;;;;;;;;;;;9.50;98.60;;;;;;5080075;28;20372;-74
2022/01/29 07:11:43;;;;;;;;;;;9.60;98.60;;;;;;5079664;28;19917;-74
2022/01/29 07:14:11;;;;;;;;;;;9.50;98.60;;;;;;5078621;28;19912;-74
2022/01/29 07:16:37;;;;;;;;;;;9.50;98.50;;;;;;5077948;28;19912;-73
2022/01/29 07:19:03;;;;;;;;;;;9.50;98.60;;;;;;5079461;28;19919;-74
2022/01/29 07:21:29;;;;;;;;;;;9.50;98.60;;;;;;5079330;28;19963;-74
2022/01/29 07:23:55;;;;;;;;;;;9.50;98.60;;;;;;5078101;28;19999;-74
2022/01/29 07:26:20;;;;;;;;;;;9.50;98.60;;;;;;5079655;28;19918;-74
2022/01/29 07:28:46;;;;;;;;;;;9.40;98.50;;;;;;5080294;28;20000;-74
2022/01/29 07:31:12;;;;;;;;;;;9.40;98.50;;;;;;5078379;28;19916;-74
2022/01/29 07:33:37;;;;;;;;;;;9.40;98.40;;;;;;5079835;28;19920;-74
2022/01/29 07:36:03;;;;;;;;;;;9.40;98.30;;;;;;5073016;28;19920;-73
2022/01/29 07:38:29;;;;;;;;;;;9.30;98.20;;;;;;5077604;28;19912;-74
2022/01/29 07:40:54;;;;;;;;;;;9.20;98.30;;;;;;5078196;28;19912;-74
2022/01/29 07:43:20;;;;;;;;;;;9.20;98.50;;;;;;5077381;28;19921;-74
2022/01/29 07:45:45;;;;;;;;;;;9.20;98.60;;;;;;5078725;28;20367;-73
2022/01/29 07:48:11;;;;;;;;;;;9.20;98.80;;;;;;5079880;28;19913;-74
2022/01/29 07:50:37;;;;;;;;;;;9.20;98.80;;;;;;5079235;28;19916;-74
2022/01/29 07:53:03;;;;;;;;;;;9.20;98.80;;;;;;5079328;28;19913;-74
2022/01/29 07:55:30;;;;;;;;;;;9.20;98.70;;;;;;5078574;28;19921;-73
2022/01/29 07:57:59;;;;;;;;;;;9.10;98.60;;;;;;5079437;28;20281;-74
2022/01/29 08:00:25;;;;;;;;;;;9.10;98.60;;;;;;5077915;28;19952;-73
2022/01/29 08:02:50;;;;;;;;;;;9.10;98.50;;;;;;5078896;28;19920;-74
2022/01/29 08:05:16;;;;;;;;;;;9.10;98.60;;;;;;5079405;28;19970;-74
2022/01/29 08:07:42;;;;;;;;;;;9.00;98.60;;;;;;5078692;28;19939;-74
2022/01/29 08:10:08;;;;;;;;;;;9.00;98.70;;;;;;5077935;28;20334;-74
2022/01/29 08:12:34;;;;;;;;;;;9.00;98.90;;;;;;5063779;28;20637;-75
2022/01/29 08:15:00;;;;;;;;;;;9.10;99.10;;;;;;5069454;28;19912;-77
2022/01/29 08:17:26;;;;;;;;;;;9.10;99.20;;;;;;5073142;28;20029;-74
2022/01/29 08:19:52;;;;;;;;;;;9.10;99.20;;;;;;5077830;28;19920;-74
2022/01/29 08:22:17;;;;;;;;;;;9.10;99.10;;;;;;5078111;28;19958;-72
2022/01/29 08:24:43;;;;;;;;;;;9.20;99.20;;;;;;5077768;28;19912;-73
2022/01/29 08:27:09;;;;;;;;;;;9.20;99.10;;;;;;5078170;28;19908;-74
2022/01/29 08:29:34;;;;;;;;;;;9.30;99.10;;;;;;5076348;28;19924;-88
2022/01/29 08:32:00;;;;;;;;;;;9.30;99.10;;;;;;5077796;28;19919;-77
2022/01/29 08:34:26;;;;;;;;;;;9.40;99.20;;;;;;5077275;28;19916;-76
2022/01/29 08:36:52;;;;;;;;;;;9.40;99.10;;;;;;5076935;28;19917;-75
2022/01/29 08:39:18;;;;;;;;;;;9.40;99.10;;;;;;5079055;28;19920;-77
2022/01/29 08:41:43;;;;;;;;;;;9.50;99.10;;;;;;5076813;28;20314;-78
2022/01/29 08:44:09;;;;;;;;;;;9.50;99.10;;;;;;5075854;28;19943;-76
2022/01/29 08:46:35;;;;;;;;;;;9.50;99.00;;;;;;5077108;28;19919;-75
2022/01/29 08:49:00;;;;;;;;;;;9.50;98.90;;;;;;5078303;28;20397;-75
2022/01/29 08:51:26;;;;;;;;;;;9.50;98.80;;;;;;5078172;28;19958;-75
2022/01/29 08:53:52;;;;;;;;;;;9.50;98.70;;;;;;5078412;28;19916;-71
2022/01/29 08:56:18;;;;;;;;;;;9.50;98.70;;;;;;5077727;28;19958;-74
2022/01/29 08:58:43;;;;;;;;;;;9.60;98.60;;;;;;5076869;28;19912;-87
2022/01/29 09:01:09;;;;;;;;;;;9.60;98.50;;;;;;5075735;28;20028;-78
2022/01/29 09:03:35;;;;;;;;;;;9.60;98.50;;;;;;5075088;28;20378;-76
2022/01/29 09:06:01;;;;;;;;;;;9.60;98.40;;;;;;5077382;28;19913;-78
2022/01/29 09:08:27;;;;;;;;;;;9.70;98.40;;;;;;5069531;28;20011;-78
2022/01/29 09:10:57;;;;;;;;;;;9.70;98.30;;;;;;5069768;28;19912;-78
2022/01/29 09:13:23;;;;;;;;;;;9.80;98.20;;;;;;5067652;28;19920;-74
2022/01/29 09:15:48;;;;;;;;;;;9.80;98.10;;;;;;5069043;28;19913;-71
2022/01/29 09:18:14;;;;;;;;;;;9.80;98.00;;;;;;5072419;28;19912;-70
2022/01/29 09:20:40;;;;;;;;;;;9.80;97.90;;;;;;5076710;28;19913;-71
2022/01/29 09:23:08;;;;;;;;;;;9.90;97.90;;;;;;5076231;28;19916;-71
2022/01/29 09:25:35;;;;;;;;;;;9.90;97.90;;;;;;5077437;28;19913;-71
2022/01/29 09:28:03;;;;;;;;;;;9.90;97.80;;;;;;5078008;28;20003;-71
2022/01/29 09:30:29;;;;;;;;;;;10.00;97.80;;;;;;5076656;28;20033;-71
2022/01/29 09:32:55;;;;;;;;;;;10.00;97.70;;;;;;5077595;28;19916;-72
2022/01/29 09:35:20;;;;;;;;;;;10.10;97.40;;;;;;5076934;28;19912;-72
2022/01/29 09:37:46;;;;;;;;;;;10.10;97.40;;;;;;5076967;28;19912;-72
2022/01/29 09:40:12;;;;;;;;;;;10.20;97.10;;;;;;5076813;28;19916;-72
2022/01/29 09:42:39;;;;;;;;;;;10.20;97.00;;;;;;5076178;28;19916;-71
2022/01/29 09:45:06;;;;;;;;;;;10.20;97.00;;;;;;5062491;28;19912;-72
2022/01/29 09:47:32;;;;;;;;;;;10.20;96.90;;;;;;5056385;28;19920;-72
2022/01/29 09:49:58;;;;;;;;;;;10.30;96.90;;;;;;5065982;28;19917;-72
2022/01/29 09:52:23;;;;;;;;;;;10.30;96.80;;;;;;5068344;28;19974;-73
2022/01/29 09:54:49;;;;;;;;;;;10.30;96.80;;;;;;5061792;28;19913;-73
2022/01/29 09:57:15;;;;;;;;;;;10.30;96.70;;;;;;5076791;28;19913;-73
2022/01/29 09:59:41;;;;;;;;;;;10.30;96.50;;;;;;5076947;28;20037;-74
2022/01/29 10:02:14;;;;;;;;;;;10.30;96.50;;;;;;5075843;28;19941;-73
2022/01/29 10:04:50;;;;;;;;;;;10.30;96.50;;;;;;5074555;28;19913;-73
2022/01/29 10:07:20;;;;;;;;;;;10.40;96.60;;;;;;5072090;28;19912;-73
2022/01/29 10:09:46;;;;;;;;;;;10.40;96.60;;;;;;5066613;28;19916;-72
2022/01/29 10:12:18;;;;;;;;;;;10.50;96.50;;;;;;5077437;28;20291;-73
2022/01/29 10:14:52;;;;;;;;;;;10.50;96.40;;;;;;5076572;28;19912;-72
2022/01/29 10:17:41;;;;;;;;;;;10.60;96.30;;;;;;5077146;28;19982;-73
2022/01/29 10:20:20;;;;;;;;;;;10.60;96.20;;;;;;5068029;28;19912;-73
2022/01/29 10:22:55;;;;;;;;;;;10.70;95.90;;;;;;5074480;28;19919;-75
2022/01/29 10:25:43;;;;;;;;;;;10.70;95.60;;;;;;5079680;28;19913;-81
2022/01/29 10:28:09;;;;;;;;;;;10.70;95.60;;;;;;5081146;28;19912;-78
2022/01/29 10:30:36;;;;;;;;;;;10.80;95.50;;;;;;5079632;28;20358;-82
2022/01/29 10:33:21;;;;;;;;;;;10.80;95.10;;;;;;5079121;28;19920;-73
2022/01/29 10:35:48;;;;;;;;;;;10.90;94.80;;;;;;5076999;28;20600;-73
2022/01/29 10:38:18;;;;;;;;;;;10.90;94.40;;;;;;5081169;28;19955;-74
2022/01/29 10:40:43;;;;;;;;;;;10.90;94.20;;;;;;5078898;28;20244;-75
2022/01/29 10:43:09;;;;;;;;;;;11.00;94.30;;;;;;5080795;28;19928;-72
2022/01/29 10:45:36;;;;;;;;;;;11.00;94.40;;;;;;5079461;28;19913;-73
2022/01/29 10:48:04;;;;;;;;;;;11.00;94.40;;;;;;5080936;28;19912;-73
2022/01/29 10:50:30;;;;;;;;;;;11.10;94.10;;;;;;5079756;28;20501;-73
2022/01/29 10:52:56;;;;;;;;;;;11.10;94.20;;;;;;5078128;28;19920;-72
2022/01/29 10:55:22;;;;;;;;;;;11.10;94.10;;;;;;5078997;28;19916;-72
2022/01/29 10:57:48;;;;;;;;;;;11.10;94.10;;;;;;5080498;28;20359;-72
2022/01/29 11:00:20;;;;;;;;;;;11.20;93.90;;;;;;5079520;28;20325;-72
2022/01/29 11:02:46;;;;;;;;;;;11.10;93.80;;;;;;5080352;28;19944;-73
2022/01/29 11:05:14;;;;;;;;;;;11.20;93.90;;;;;;5078380;28;20010;-73
2022/01/29 11:07:41;;;;;;;;;;;11.20;93.80;;;;;;5080620;28;19909;-73
2022/01/29 11:10:07;;;;;;;;;;;11.20;93.50;;;;;;5068640;28;20379;-74
2022/01/29 11:12:33;;;;;;;;;;;11.20;93.50;;;;;;5078956;28;19920;-73
2022/01/29 11:14:59;;;;;;;;;;;11.20;93.50;;;;;;5078673;28;19912;-73
2022/01/29 11:17:30;;;;;;;;;;;11.20;93.40;;;;;;5080280;28;20362;-73
2022/01/29 11:19:56;;;;;;;;;;;11.10;93.40;;;;;;5079230;28;20445;-73
2022/01/29 11:22:26;;;;;;;;;;;11.20;93.50;;;;;;5080135;28;19962;-73
2022/01/29 11:24:57;;;;;;;;;;;11.20;93.50;;;;;;5078817;28;19916;-73
2022/01/29 11:27:24;;;;;;;;;;;11.20;93.40;;;;;;5080119;28;19916;-73
2022/01/29 11:30:11;;;;;;;;;;;11.20;93.40;;;;;;5079022;28;19923;-73
2022/01/29 11:32:40;;;;;;;;;;;11.20;93.40;;;;;;5078832;28;19958;-73
2022/01/29 11:35:09;;;;;;;;;;;11.30;93.50;;;;;;5077714;28;19912;-73
2022/01/29 11:37:36;;;;;;;;;;;11.30;93.40;;;;;;5077845;28;19913;-74
2022/01/29 11:40:16;;;;;;;;;;;11.30;93.30;;;;;;5078807;28;19961;-75
2022/01/29 11:42:50;;;;;;;;;;;11.20;93.20;;;;;;5078747;28;19927;-74
2022/01/29 11:45:36;;;;;;;;;;;11.30;93.20;;;;;;5072289;28;20025;-77
2022/01/29 11:48:01;;;;;;;;;;;11.30;93.20;;;;;;5078542;28;19915;-78
2022/01/29 11:50:27;;;;;;;;;;;11.40;93.10;;;;;;5079636;28;19912;-82
2022/01/29 11:52:54;;;;;;;;;;;11.30;92.90;;;;;;5077579;28;19920;-78
2022/01/29 11:55:40;;;;;;;;;;;11.40;92.90;;;;;;5077941;28;19908;-75
2022/01/29 11:58:28;;;;;;;;;;;11.40;92.90;;;;;;5077013;28;19972;-76
2022/01/29 12:00:57;;;;;;;;;;;11.40;92.80;;;;;;5078309;28;19909;-87
2022/01/29 12:03:32;;;;;;;;;;;11.40;92.60;;;;;;5079200;28;19916;-75
2022/01/29 12:09:07;;;;;;;;;;;11.40;92.10;;;;;;5078566;28;20057;-74
2022/01/29 12:11:39;;;;;;;;;;;11.40;92.20;;;;;;5070815;28;20402;-75
2022/01/29 12:14:14;;;;;;;;;;;11.40;92.30;;;;;;5077710;28;19908;-77
2022/01/29 12:16:47;;;;;;;;;;;11.40;92.20;;;;;;5079059;28;20443;-77
2022/01/29 12:19:31;;;;;;;;;;;11.40;92.30;;;;;;5079086;28;19915;-75
2022/01/29 12:21:57;;;;;;;;;;;11.40;92.40;;;;;;5079266;28;20291;-77
2022/01/29 12:24:23;;;;;;;;;;;11.40;92.40;;;;;;5078907;28;19909;-76
2022/01/29 12:26:58;;;;;;;;;;;11.40;92.10;;;;;;5078587;28;19970;-74
2022/01/29 12:29:24;;;;;;;;;;;11.40;92.20;;;;;;5077759;28;19978;-74
2022/01/29 12:31:50;;;;;;;;;;;11.50;92.10;;;;;;5077468;28;19915;-74
2022/01/29 12:34:16;;;;;;;;;;;11.40;92.30;;;;;;5076886;28;20011;-75
2022/01/29 12:36:41;;;;;;;;;;;11.40;92.40;;;;;;5074070;28;19944;-76
2022/01/29 12:39:09;;;;;;;;;;;11.50;92.60;;;;;;5078360;28;20336;-77
2022/01/29 12:41:38;;;;;;;;;;;11.50;92.50;;;;;;5078684;28;19915;-76
2022/01/29 12:44:08;;;;;;;;;;;11.60;92.70;;;;;;5077382;28;19969;-75
2022/01/29 12:46:34;;;;;;;;;;;11.60;92.10;;;;;;5077532;28;20291;-77
2022/01/29 12:49:11;;;;;;;;;;;11.60;92.10;;;;;;5077717;28;19917;-76
2022/01/29 12:51:49;;;;;;;;;;;11.60;92.10;;;;;;5078490;28;19969;-81
2022/01/29 12:54:17;;;;;;;;;;;11.60;92.20;;;;;;5076035;28;20279;-80
2022/01/29 12:56:42;;;;;;;;;;;11.60;92.10;;;;;;5077921;28;19921;-79
2022/01/29 12:59:09;;;;;;;;;;;11.60;92.20;;;;;;5076303;28;19962;-79
2022/01/29 13:01:36;;;;;;;;;;;11.70;92.10;;;;;;5078135;28;19935;-75
2022/01/29 13:04:10;;;;;;;;;;;11.70;91.90;;;;;;5077030;28;19935;-79
2022/01/29 13:06:35;;;;;;;;;;;11.70;92.00;;;;;;5077642;28;19912;-79
2022/01/29 13:09:13;;;;;;;;;;;11.70;92.10;;;;;;5065631;28;20008;-72
2022/01/29 13:11:39;;;;;;;;;;;11.70;92.20;;;;;;5076485;28;19995;-73
2022/01/29 13:14:15;;;;;;;;;;;11.70;92.00;;;;;;5070806;28;19920;-78
2022/01/29 13:16:41;;;;;;;;;;;11.70;92.20;;;;;;5075421;28;19915;-82
2022/01/29 13:19:07;;;;;;;;;;;11.80;92.00;;;;;;5077874;28;19919;-83
2022/01/29 13:21:33;;;;;;;;;;;11.80;92.20;;;;;;5076458;28;19920;-83
2022/01/29 13:24:23;;;;;;;;;;;11.80;92.00;;;;;;5076692;28;19935;-78
2022/01/29 13:26:59;;;;;;;;;;;11.80;92.20;;;;;;5077942;28;19912;-84
2022/01/29 13:29:33;;;;;;;;;;;11.90;92.00;;;;;;5073134;28;20000;-79
2022/01/29 13:32:06;;;;;;;;;;;11.90;92.10;;;;;;5077092;28;19913;-79
2022/01/29 13:34:33;;;;;;;;;;;11.90;91.50;;;;;;5075813;28;20383;-84
2022/01/29 13:36:59;;;;;;;;;;;11.90;91.80;;;;;;5076409;28;19920;-82
2022/01/29 13:39:28;;;;;;;;;;;12.00;91.50;;;;;;5070465;28;19920;-82
2022/01/29 13:42:10;;;;;;;;;;;12.00;91.30;;;;;;5075559;28;19913;-84
2022/01/29 13:44:36;;;;;;;;;;;12.00;91.30;;;;;;5076583;28;19927;-79
2022/01/29 13:47:09;;;;;;;;;;;11.90;91.40;;;;;;5077084;28;19917;-75
2022/01/29 13:49:35;;;;;;;;;;;11.90;91.60;;;;;;5070034;28;19916;-80
2022/01/29 13:52:14;;;;;;;;;;;11.90;91.70;;;;;;5074749;28;19915;-75
2022/01/29 13:54:40;;;;;;;;;;;11.90;91.90;;;;;;5075556;28;19961;-73
2022/01/29 13:57:06;;;;;;;;;;;11.90;91.70;;;;;;5077902;28;19956;-74
2022/01/29 13:59:32;;;;;;;;;;;12.00;91.60;;;;;;5075125;28;19913;-80
2022/01/29 14:02:04;;;;;;;;;;;12.00;91.80;;;;;;5078033;28;19952;-80
2022/01/29 14:04:37;;;;;;;;;;;12.00;91.80;;;;;;5066981;28;20414;-87
2022/01/29 14:07:05;;;;;;;;;;;12.00;91.50;;;;;;5074693;28;19908;-85
2022/01/29 14:12:05;;;;;;;;;;;12.00;91.10;;;;;;5075308;28;20391;-85
2022/01/29 14:14:32;;;;;;;;;;;12.00;91.30;;;;;;5072378;28;19916;-83
2022/01/29 14:17:00;;;;;;;;;;;12.00;91.40;;;;;;5077301;28;20011;-81
2022/01/29 14:19:29;;;;;;;;;;;12.00;91.40;;;;;;5077616;28;19915;-81
2022/01/29 14:21:57;;;;;;;;;;;12.00;91.40;;;;;;5077019;28;20303;-80
2022/01/29 14:24:23;;;;;;;;;;;12.00;91.60;;;;;;5076786;28;20290;-78
2022/01/29 14:26:49;;;;;;;;;;;12.00;91.60;;;;;;5077309;28;19919;-78
2022/01/29 14:29:14;;;;;;;;;;;12.00;91.60;;;;;;5074783;28;19913;-79
2022/01/29 14:31:41;;;;;;;;;;;11.90;91.70;;;;;;5075984;28;19920;-74
2022/01/29 14:34:07;;;;;;;;;;;12.00;91.60;;;;;;5075121;28;19914;-77
2022/01/29 14:36:33;;;;;;;;;;;11.90;91.70;;;;;;5076058;28;19964;-76
2022/01/29 14:38:59;;;;;;;;;;;11.90;91.60;;;;;;5077186;28;19912;-76
2022/01/29 14:41:25;;;;;;;;;;;11.90;91.30;;;;;;5077108;28;19991;-76
2022/01/29 14:43:51;;;;;;;;;;;11.90;91.50;;;;;;5076059;28;20037;-74